sensor_id;sensor_type;location;lat;lon;timestamp;pressure;altitude;pressure_sealevel;temperature;humidity
6032;BME280;3044;43.232;27.972;2023-03-16T00:01:28;43922.00;;;-143.84;90.04
6032;BME280;3044;43.232;27.972;2023-03-16T00:03:55;43893.44;;;-143.84;90.05
6032;BME280;3044;43.232;27.972;2023-03-16T00:06:22;43922.00;;;-143.84;89.95
6032;BME280;3044;43.232;27.972;2023-03-16T00:08:49;43922.00;;;-143.84;89.96
6032;BME280;3044;43.232;27.972;2023-03-16T00:11:16;43950.53;;;-143.84;89.93
6032;BME280;3044;43.232;27.972;2023-03-16T00:13:44;43893.44;;;-143.84;89.92
6032;BME280;3044;43.232;27.972;2023-03-16T00:16:12;43942.94;;;-143.84;90.22
6032;BME280;3044;43.232;27.972;2023-03-16T00:18:41;43986.72;;;-143.84;89.70
6032;BME280;3044;43.232;27.972;2023-03-16T00:21:09;43986.72;;;-143.84;89.72
6032;BME280;3044;43.232;27.972;2023-03-16T00:23:36;43971.47;;;-143.84;89.90
6032;BME280;3044;43.232;27.972;2023-03-16T00:26:05;43910.56;;;-143.84;90.15
6032;BME280;3044;43.232;27.972;2023-03-16T00:28:34;43885.81;;;-143.84;90.15
6032;BME280;3044;43.232;27.972;2023-03-16T00:31:02;43887.72;;;-143.84;90.31
6032;BME280;3044;43.232;27.972;2023-03-16T00:33:30;43874.41;;;-143.84;90.54
6032;BME280;3044;43.232;27.972;2023-03-16T00:35:59;43830.63;;;-143.84;91.52
6032;BME280;3044;43.232;27.972;2023-03-16T00:38:31;43805.88;;;-143.84;91.83
6032;BME280;3044;43.232;27.972;2023-03-16T00:40:59;43802.06;;;-143.84;92.18
6032;BME280;3044;43.232;27.972;2023-03-16T00:43:28;43815.41;;;-143.84;92.43
6032;BME280;3044;43.232;27.972;2023-03-16T00:45:59;43824.91;;;-143.84;92.43
6032;BME280;3044;43.232;27.972;2023-03-16T00:48:32;43840.13;;;-143.84;92.76
6032;BME280;3044;43.232;27.972;2023-03-16T00:51:00;43821.09;;;-143.84;92.67
6032;BME280;3044;43.232;27.972;2023-03-16T00:53:29;43847.75;;;-143.84;92.57
6032;BME280;3044;43.232;27.972;2023-03-16T00:55:56;43824.91;;;-143.84;92.49
6032;BME280;3044;43.232;27.972;2023-03-16T00:58:23;43819.19;;;-143.84;92.49
6032;BME280;3044;43.232;27.972;2023-03-16T01:00:50;43826.81;;;-143.84;92.54
6032;BME280;3044;43.232;27.972;2023-03-16T01:03:19;43832.53;;;-143.84;92.79
6032;BME280;3044;43.232;27.972;2023-03-16T01:05:47;43809.69;;;-143.84;92.72
6032;BME280;3044;43.232;27.972;2023-03-16T01:08:15;43823.00;;;-143.84;92.82
6032;BME280;3044;43.232;27.972;2023-03-16T01:10:42;43838.25;;;-143.84;93.00
6032;BME280;3044;43.232;27.972;2023-03-16T01:13:10;43853.47;;;-143.84;93.04
6032;BME280;3044;43.232;27.972;2023-03-16T01:15:37;43817.31;;;-143.84;92.93
6032;BME280;3044;43.232;27.972;2023-03-16T01:18:05;43830.63;;;-143.84;93.04
6032;BME280;3044;43.232;27.972;2023-03-16T01:20:32;43843.94;;;-143.84;92.83
6032;BME280;3044;43.232;27.972;2023-03-16T01:23:01;43838.25;;;-143.84;92.95
6032;BME280;3044;43.232;27.972;2023-03-16T01:25:28;43830.63;;;-143.84;92.84
6032;BME280;3044;43.232;27.972;2023-03-16T01:27:55;43823.00;;;-143.84;92.92
6032;BME280;3044;43.232;27.972;2023-03-16T01:30:22;43857.28;;;-143.84;92.76
6032;BME280;3044;43.232;27.972;2023-03-16T01:32:50;43815.41;;;-143.84;92.49
6032;BME280;3044;43.232;27.972;2023-03-16T01:35:17;43855.38;;;-143.84;93.03
6032;BME280;3044;43.232;27.972;2023-03-16T01:37:46;43855.38;;;-143.84;93.04
6032;BME280;3044;43.232;27.972;2023-03-16T01:40:14;43849.66;;;-143.84;93.13
6032;BME280;3044;43.232;27.972;2023-03-16T01:42:45;43849.66;;;-143.84;92.92
6032;BME280;3044;43.232;27.972;2023-03-16T01:48:17;43866.78;;;-143.84;92.70
6032;BME280;3044;43.232;27.972;2023-03-16T01:50:48;43823.00;;;-143.84;92.71
6032;BME280;3044;43.232;27.972;2023-03-16T01:53:17;43809.69;;;-143.84;92.22
6032;BME280;3044;43.232;27.972;2023-03-16T01:55:45;43819.19;;;-143.84;91.95
6032;BME280;3044;43.232;27.972;2023-03-16T01:58:13;43826.81;;;-143.84;91.76
6032;BME280;3044;43.232;27.972;2023-03-16T02:00:40;43823.00;;;-143.84;91.64
6032;BME280;3044;43.232;27.972;2023-03-16T02:03:12;43826.81;;;-143.84;91.46
6032;BME280;3044;43.232;27.972;2023-03-16T02:05:43;43817.31;;;-143.84;91.23
6032;BME280;3044;43.232;27.972;2023-03-16T02:08:13;43813.50;;;-143.84;91.33
6032;BME280;3044;43.232;27.972;2023-03-16T02:10:40;43811.59;;;-143.84;91.05
6032;BME280;3044;43.232;27.972;2023-03-16T02:13:11;43874.41;;;-143.84;90.92
6032;BME280;3044;43.232;27.972;2023-03-16T02:15:38;43859.19;;;-143.84;91.11
6032;BME280;3044;43.232;27.972;2023-03-16T02:18:06;43803.97;;;-143.84;90.98
6032;BME280;3044;43.232;27.972;2023-03-16T02:20:38;43824.91;;;-143.84;90.97
6032;BME280;3044;43.232;27.972;2023-03-16T02:23:11;43823.00;;;-143.84;91.03
6032;BME280;3044;43.232;27.972;2023-03-16T02:25:48;43876.31;;;-143.84;90.84
6032;BME280;3044;43.232;27.972;2023-03-16T02:28:24;43845.84;;;-143.84;91.05
6032;BME280;3044;43.232;27.972;2023-03-16T02:30:55;43866.78;;;-143.84;90.77
6032;BME280;3044;43.232;27.972;2023-03-16T02:33:24;43853.47;;;-143.84;90.20
6032;BME280;3044;43.232;27.972;2023-03-16T02:35:51;43828.72;;;-143.84;90.89
6032;BME280;3044;43.232;27.972;2023-03-16T02:38:19;43819.19;;;-143.84;91.46
6032;BME280;3044;43.232;27.972;2023-03-16T02:40:54;43823.00;;;-143.84;91.95
6032;BME280;3044;43.232;27.972;2023-03-16T02:43:26;43817.31;;;-143.84;92.17
6032;BME280;3044;43.232;27.972;2023-03-16T02:45:57;43815.41;;;-143.84;92.20
6032;BME280;3044;43.232;27.972;2023-03-16T02:48:30;43834.44;;;-143.84;92.41
6032;BME280;3044;43.232;27.972;2023-03-16T02:51:01;43813.50;;;-143.84;92.34
6032;BME280;3044;43.232;27.972;2023-03-16T02:53:28;43826.81;;;-143.84;92.26
6032;BME280;3044;43.232;27.972;2023-03-16T02:55:55;43811.59;;;-143.84;91.97
6032;BME280;3044;43.232;27.972;2023-03-16T02:58:22;43811.59;;;-143.84;91.81
6032;BME280;3044;43.232;27.972;2023-03-16T03:00:49;43821.09;;;-143.84;91.89
6032;BME280;3044;43.232;27.972;2023-03-16T03:03:19;43805.88;;;-143.84;91.91
6032;BME280;3044;43.232;27.972;2023-03-16T03:05:46;43798.25;;;-143.84;92.14
6032;BME280;3044;43.232;27.972;2023-03-16T03:08:13;43838.25;;;-143.84;92.17
6032;BME280;3044;43.232;27.972;2023-03-16T03:10:41;43823.00;;;-143.84;92.42
6032;BME280;3044;43.232;27.972;2023-03-16T03:13:08;43834.44;;;-143.84;92.71
6032;BME280;3044;43.232;27.972;2023-03-16T03:15:35;43803.97;;;-143.84;92.66
6032;BME280;3044;43.232;27.972;2023-03-16T03:18:03;43855.38;;;-143.84;92.71
6032;BME280;3044;43.232;27.972;2023-03-16T03:20:31;43847.75;;;-143.84;92.72
6032;BME280;3044;43.232;27.972;2023-03-16T03:22:59;43857.28;;;-143.84;92.68
6032;BME280;3044;43.232;27.972;2023-03-16T03:25:27;43840.13;;;-143.84;92.61
6032;BME280;3044;43.232;27.972;2023-03-16T03:27:54;43809.69;;;-143.84;92.49
6032;BME280;3044;43.232;27.972;2023-03-16T03:30:24;43817.31;;;-143.84;92.55
6032;BME280;3044;43.232;27.972;2023-03-16T03:32:52;43832.53;;;-143.84;92.56
6032;BME280;3044;43.232;27.972;2023-03-16T03:35:20;43824.91;;;-143.84;92.57
6032;BME280;3044;43.232;27.972;2023-03-16T03:37:49;43836.34;;;-143.84;92.54
6032;BME280;3044;43.232;27.972;2023-03-16T03:40:17;43859.19;;;-143.84;92.74
6032;BME280;3044;43.232;27.972;2023-03-16T03:42:44;43828.72;;;-143.84;92.85
6032;BME280;3044;43.232;27.972;2023-03-16T03:45:12;43830.63;;;-143.84;92.64
6032;BME280;3044;43.232;27.972;2023-03-16T03:47:40;43840.13;;;-143.84;92.79
6032;BME280;3044;43.232;27.972;2023-03-16T03:50:09;43815.41;;;-143.84;92.49
6032;BME280;3044;43.232;27.972;2023-03-16T03:52:38;43843.94;;;-143.84;92.47
6032;BME280;3044;43.232;27.972;2023-03-16T03:55:07;43826.81;;;-143.84;92.83
6032;BME280;3044;43.232;27.972;2023-03-16T03:57:35;43862.97;;;-143.84;92.81
6032;BME280;3044;43.232;27.972;2023-03-16T04:00:04;43834.44;;;-143.84;92.97
6032;BME280;3044;43.232;27.972;2023-03-16T04:02:34;43849.66;;;-143.84;93.11
6032;BME280;3044;43.232;27.972;2023-03-16T04:05:01;43849.66;;;-143.84;93.08
6032;BME280;3044;43.232;27.972;2023-03-16T04:07:28;43862.97;;;-143.84;93.05
6032;BME280;3044;43.232;27.972;2023-03-16T04:09:55;43855.38;;;-143.84;92.98
6032;BME280;3044;43.232;27.972;2023-03-16T04:12:24;43859.19;;;-143.84;93.07
6032;BME280;3044;43.232;27.972;2023-03-16T04:14:52;43830.63;;;-143.84;93.31
6032;BME280;3044;43.232;27.972;2023-03-16T04:17:19;43880.13;;;-143.84;93.42
6032;BME280;3044;43.232;27.972;2023-03-16T04:19:46;43862.97;;;-143.84;93.34
6032;BME280;3044;43.232;27.972;2023-03-16T04:22:14;43870.59;;;-143.84;93.42
6032;BME280;3044;43.232;27.972;2023-03-16T04:24:41;43853.47;;;-143.84;93.65
6032;BME280;3044;43.232;27.972;2023-03-16T04:27:09;43882.00;;;-143.84;93.74
6032;BME280;3044;43.232;27.972;2023-03-16T04:29:38;43891.53;;;-143.84;93.63
6032;BME280;3044;43.232;27.972;2023-03-16T04:32:05;43859.19;;;-143.84;93.65
6032;BME280;3044;43.232;27.972;2023-03-16T04:34:33;43866.78;;;-143.84;93.70
6032;BME280;3044;43.232;27.972;2023-03-16T04:37:00;43902.97;;;-143.84;94.21
6032;BME280;3044;43.232;27.972;2023-03-16T04:39:28;43872.50;;;-143.84;94.14
6032;BME280;3044;43.232;27.972;2023-03-16T04:41:55;43902.97;;;-143.84;94.05
6032;BME280;3044;43.232;27.972;2023-03-16T04:44:22;43902.97;;;-143.84;93.28
6032;BME280;3044;43.232;27.972;2023-03-16T04:46:52;43866.78;;;-143.84;93.31
6032;BME280;3044;43.232;27.972;2023-03-16T04:49:19;43851.56;;;-143.84;93.29
6032;BME280;3044;43.232;27.972;2023-03-16T04:51:46;43851.56;;;-143.84;93.25
6032;BME280;3044;43.232;27.972;2023-03-16T04:54:13;43853.47;;;-143.84;93.37
6032;BME280;3044;43.232;27.972;2023-03-16T04:56:40;43857.28;;;-143.84;92.94
6032;BME280;3044;43.232;27.972;2023-03-16T04:59:08;43895.34;;;-143.84;93.20
6032;BME280;3044;43.232;27.972;2023-03-16T05:01:35;43880.13;;;-143.84;93.33
6032;BME280;3044;43.232;27.972;2023-03-16T05:04:04;43866.78;;;-143.84;93.50
6032;BME280;3044;43.232;27.972;2023-03-16T05:06:31;43885.81;;;-143.84;93.59
6032;BME280;3044;43.232;27.972;2023-03-16T05:08:59;43870.59;;;-143.84;93.87
6032;BME280;3044;43.232;27.972;2023-03-16T05:11:27;43876.31;;;-143.84;93.83
6032;BME280;3044;43.232;27.972;2023-03-16T05:13:54;43899.16;;;-143.84;93.84
6032;BME280;3044;43.232;27.972;2023-03-16T05:16:21;43889.63;;;-143.84;94.00
6032;BME280;3044;43.232;27.972;2023-03-16T05:18:48;43876.31;;;-143.84;94.28
6032;BME280;3044;43.232;27.972;2023-03-16T05:21:19;43885.81;;;-143.84;94.45
6032;BME280;3044;43.232;27.972;2023-03-16T05:23:46;43897.25;;;-143.84;94.42
6032;BME280;3044;43.232;27.972;2023-03-16T05:26:13;43931.50;;;-143.84;94.53
6032;BME280;3044;43.232;27.972;2023-03-16T05:28:40;43901.06;;;-143.84;94.72
6032;BME280;3044;43.232;27.972;2023-03-16T05:31:08;43901.06;;;-143.84;94.70
6032;BME280;3044;43.232;27.972;2023-03-16T05:33:35;43920.09;;;-143.84;94.80
6032;BME280;3044;43.232;27.972;2023-03-16T05:36:02;43925.78;;;-143.84;94.81
6032;BME280;3044;43.232;27.972;2023-03-16T05:38:31;43937.22;;;-143.84;94.70
6032;BME280;3044;43.232;27.972;2023-03-16T05:40:58;43889.63;;;-143.84;94.66
6032;BME280;3044;43.232;27.972;2023-03-16T05:43:29;43916.28;;;-143.84;94.85
6032;BME280;3044;43.232;27.972;2023-03-16T05:45:56;43889.63;;;-143.84;94.81
6032;BME280;3044;43.232;27.972;2023-03-16T05:48:24;43897.25;;;-143.84;94.96
6032;BME280;3044;43.232;27.972;2023-03-16T05:50:51;43925.78;;;-143.84;95.11
6032;BME280;3044;43.232;27.972;2023-03-16T05:53:19;43916.28;;;-143.84;95.12
6032;BME280;3044;43.232;27.972;2023-03-16T05:55:52;43929.59;;;-143.84;95.33
6032;BME280;3044;43.232;27.972;2023-03-16T05:58:19;43925.78;;;-143.84;95.66
6032;BME280;3044;43.232;27.972;2023-03-16T06:00:47;43941.03;;;-143.84;95.73
6032;BME280;3044;43.232;27.972;2023-03-16T06:03:14;43946.75;;;-143.84;95.72
6032;BME280;3044;43.232;27.972;2023-03-16T06:05:42;43941.03;;;-143.84;95.78
6032;BME280;3044;43.232;27.972;2023-03-16T06:08:10;43937.22;;;-143.84;95.96
6032;BME280;3044;43.232;27.972;2023-03-16T06:10:37;43952.44;;;-143.84;95.96
6032;BME280;3044;43.232;27.972;2023-03-16T06:13:06;43967.69;;;-143.84;96.13
6032;BME280;3044;43.232;27.972;2023-03-16T06:15:33;43944.84;;;-143.84;96.02
6032;BME280;3044;43.232;27.972;2023-03-16T06:18:00;43965.78;;;-143.84;96.25
6032;BME280;3044;43.232;27.972;2023-03-16T06:20:28;43960.06;;;-143.84;96.13
6032;BME280;3044;43.232;27.972;2023-03-16T06:22:55;43965.78;;;-143.84;96.24
6032;BME280;3044;43.232;27.972;2023-03-16T06:25:22;43961.97;;;-143.84;96.33
6032;BME280;3044;43.232;27.972;2023-03-16T06:27:50;43975.28;;;-143.84;96.38
6032;BME280;3044;43.232;27.972;2023-03-16T06:30:18;43944.84;;;-143.84;96.04
6032;BME280;3044;43.232;27.972;2023-03-16T06:32:45;43965.78;;;-143.84;96.18
6032;BME280;3044;43.232;27.972;2023-03-16T06:35:13;43958.16;;;-143.84;96.21
6032;BME280;3044;43.232;27.972;2023-03-16T06:37:40;43973.38;;;-143.84;96.07
6032;BME280;3044;43.232;27.972;2023-03-16T06:40:08;43965.78;;;-143.84;96.22
6032;BME280;3044;43.232;27.972;2023-03-16T06:42:35;43960.06;;;-143.84;96.26
6032;BME280;3044;43.232;27.972;2023-03-16T06:45:03;43946.75;;;-143.84;96.21
6032;BME280;3044;43.232;27.972;2023-03-16T06:47:32;43969.59;;;-143.84;96.27
6032;BME280;3044;43.232;27.972;2023-03-16T06:49:59;43998.13;;;-143.84;96.42
6032;BME280;3044;43.232;27.972;2023-03-16T06:52:26;43981.00;;;-143.84;96.54
6032;BME280;3044;43.232;27.972;2023-03-16T06:54:53;43971.47;;;-143.84;96.74
6032;BME280;3044;43.232;27.972;2023-03-16T06:57:20;43975.28;;;-143.84;96.78
6032;BME280;3044;43.232;27.972;2023-03-16T06:59:47;43981.00;;;-143.84;96.82
6032;BME280;3044;43.232;27.972;2023-03-16T07:02:15;43998.13;;;-143.84;96.87
6032;BME280;3044;43.232;27.972;2023-03-16T07:04:45;43986.72;;;-143.84;96.87
6032;BME280;3044;43.232;27.972;2023-03-16T07:07:13;43988.63;;;-143.84;97.03
6032;BME280;3044;43.232;27.972;2023-03-16T07:09:40;43982.91;;;-143.84;97.08
6032;BME280;3044;43.232;27.972;2023-03-16T07:12:08;43996.22;;;-143.84;97.07
6032;BME280;3044;43.232;27.972;2023-03-16T07:14:35;44013.38;;;-143.84;97.18
6032;BME280;3044;43.232;27.972;2023-03-16T07:17:03;44005.75;;;-143.84;97.23
6032;BME280;3044;43.232;27.972;2023-03-16T07:19:31;43992.41;;;-143.84;97.21
6032;BME280;3044;43.232;27.972;2023-03-16T07:21:59;43990.53;;;-143.84;97.29
6032;BME280;3044;43.232;27.972;2023-03-16T07:24:27;43992.41;;;-143.84;97.18
6032;BME280;3044;43.232;27.972;2023-03-16T07:26:54;44005.75;;;-143.84;97.39
6032;BME280;3044;43.232;27.972;2023-03-16T07:29:22;44009.56;;;-143.84;97.59
6032;BME280;3044;43.232;27.972;2023-03-16T07:31:49;44009.56;;;-143.84;97.47
6032;BME280;3044;43.232;27.972;2023-03-16T07:34:16;44001.94;;;-143.84;97.37
6032;BME280;3044;43.232;27.972;2023-03-16T07:36:44;43998.13;;;-143.84;97.13
6032;BME280;3044;43.232;27.972;2023-03-16T07:39:14;44001.94;;;-143.84;97.15
6032;BME280;3044;43.232;27.972;2023-03-16T07:41:42;43992.41;;;-143.84;96.84
6032;BME280;3044;43.232;27.972;2023-03-16T07:44:09;44001.94;;;-143.84;96.96
6032;BME280;3044;43.232;27.972;2023-03-16T07:46:37;44000.03;;;-143.84;96.75
6032;BME280;3044;43.232;27.972;2023-03-16T07:49:04;43990.53;;;-143.84;96.84
6032;BME280;3044;43.232;27.972;2023-03-16T07:51:34;43994.31;;;-143.84;96.82
6032;BME280;3044;43.232;27.972;2023-03-16T07:54:01;43973.38;;;-143.84;96.67
6032;BME280;3044;43.232;27.972;2023-03-16T07:56:30;43977.19;;;-143.84;96.83
6032;BME280;3044;43.232;27.972;2023-03-16T07:58:57;43990.53;;;-143.84;96.79
6032;BME280;3044;43.232;27.972;2023-03-16T08:01:24;43988.63;;;-143.84;96.81
6032;BME280;3044;43.232;27.972;2023-03-16T08:03:51;43998.13;;;-143.84;96.67
6032;BME280;3044;43.232;27.972;2023-03-16T08:06:19;43979.09;;;-143.84;96.78
6032;BME280;3044;43.232;27.972;2023-03-16T08:08:47;43982.91;;;-143.84;96.90
6032;BME280;3044;43.232;27.972;2023-03-16T08:11:14;43977.19;;;-143.84;96.43
6032;BME280;3044;43.232;27.972;2023-03-16T08:13:50;43981.00;;;-143.84;96.86
6032;BME280;3044;43.232;27.972;2023-03-16T08:16:21;43994.31;;;-143.84;96.97
6032;BME280;3044;43.232;27.972;2023-03-16T08:18:48;44000.03;;;-143.84;96.98
6032;BME280;3044;43.232;27.972;2023-03-16T08:21:16;43984.81;;;-143.84;96.98
6032;BME280;3044;43.232;27.972;2023-03-16T08:23:44;44001.94;;;-143.84;97.24
6032;BME280;3044;43.232;27.972;2023-03-16T08:26:14;43988.63;;;-143.84;96.84
6032;BME280;3044;43.232;27.972;2023-03-16T08:28:43;43988.63;;;-143.84;96.75
6032;BME280;3044;43.232;27.972;2023-03-16T08:31:14;43982.91;;;-143.84;96.67
6032;BME280;3044;43.232;27.972;2023-03-16T08:33:42;43979.09;;;-143.84;96.97
6032;BME280;3044;43.232;27.972;2023-03-16T08:36:11;43990.53;;;-143.84;96.70
6032;BME280;3044;43.232;27.972;2023-03-16T08:38:40;43988.63;;;-143.84;96.98
6032;BME280;3044;43.232;27.972;2023-03-16T08:41:08;43973.38;;;-143.84;96.98
6032;BME280;3044;43.232;27.972;2023-03-16T08:43:37;44005.75;;;-143.84;96.77
6032;BME280;3044;43.232;27.972;2023-03-16T08:46:04;43998.13;;;-143.84;97.05
6032;BME280;3044;43.232;27.972;2023-03-16T08:48:33;44024.78;;;-143.84;97.29
6032;BME280;3044;43.232;27.972;2023-03-16T08:51:01;44001.94;;;-143.84;97.13
6032;BME280;3044;43.232;27.972;2023-03-16T08:53:28;44015.25;;;-143.84;97.57
6032;BME280;3044;43.232;27.972;2023-03-16T08:56:01;43990.53;;;-143.84;97.55
6032;BME280;3044;43.232;27.972;2023-03-16T08:58:29;44019.06;;;-143.84;97.95
6032;BME280;3044;43.232;27.972;2023-03-16T09:00:58;44030.50;;;-143.84;97.71
6032;BME280;3044;43.232;27.972;2023-03-16T09:03:26;44024.78;;;-143.84;97.59
6032;BME280;3044;43.232;27.972;2023-03-16T09:06:01;44032.41;;;-143.84;97.97
6032;BME280;3044;43.232;27.972;2023-03-16T09:08:29;44036.22;;;-143.84;97.73
6032;BME280;3044;43.232;27.972;2023-03-16T09:11:00;44013.38;;;-143.84;97.70
6032;BME280;3044;43.232;27.972;2023-03-16T09:13:28;44032.41;;;-143.84;97.33
6032;BME280;3044;43.232;27.972;2023-03-16T09:15:56;44001.94;;;-143.84;97.31
6032;BME280;3044;43.232;27.972;2023-03-16T09:18:24;44013.38;;;-143.84;97.58
6032;BME280;3044;43.232;27.972;2023-03-16T09:20:53;44015.25;;;-143.84;97.62
6032;BME280;3044;43.232;27.972;2023-03-16T09:23:24;44015.25;;;-143.84;97.83
6032;BME280;3044;43.232;27.972;2023-03-16T09:25:52;44020.97;;;-143.84;97.39
6032;BME280;3044;43.232;27.972;2023-03-16T09:28:22;44028.59;;;-143.84;97.83
6032;BME280;3044;43.232;27.972;2023-03-16T09:30:49;44040.00;;;-143.84;98.12
6032;BME280;3044;43.232;27.972;2023-03-16T09:33:17;44041.91;;;-143.84;98.03
6032;BME280;3044;43.232;27.972;2023-03-16T09:35:44;44047.63;;;-143.84;98.09
6032;BME280;3044;43.232;27.972;2023-03-16T09:38:11;44036.22;;;-143.84;97.69
6032;BME280;3044;43.232;27.972;2023-03-16T09:40:40;44034.31;;;-143.84;97.88
6032;BME280;3044;43.232;27.972;2023-03-16T09:43:30;44055.25;;;-143.84;97.64
6032;BME280;3044;43.232;27.972;2023-03-16T09:46:06;44028.59;;;-143.84;97.84
6032;BME280;3044;43.232;27.972;2023-03-16T09:48:37;44024.78;;;-143.84;97.61
6032;BME280;3044;43.232;27.972;2023-03-16T09:51:10;44000.03;;;-143.84;97.23
6032;BME280;3044;43.232;27.972;2023-03-16T09:53:40;44005.75;;;-143.84;96.83
6032;BME280;3044;43.232;27.972;2023-03-16T09:56:11;44013.38;;;-143.84;97.22
6032;BME280;3044;43.232;27.972;2023-03-16T09:58:40;44013.38;;;-143.84;97.04
6032;BME280;3044;43.232;27.972;2023-03-16T10:01:13;44013.38;;;-143.84;96.90
6032;BME280;3044;43.232;27.972;2023-03-16T10:04:09;43992.41;;;-143.84;96.50
6032;BME280;3044;43.232;27.972;2023-03-16T10:06:45;43988.63;;;-143.84;96.61
6032;BME280;3044;43.232;27.972;2023-03-16T10:09:24;43990.53;;;-143.84;96.46
6032;BME280;3044;43.232;27.972;2023-03-16T10:11:59;44001.94;;;-143.84;96.66
6032;BME280;3044;43.232;27.972;2023-03-16T10:14:31;43986.72;;;-143.84;96.44
6032;BME280;3044;43.232;27.972;2023-03-16T10:17:05;43986.72;;;-143.84;96.91
6032;BME280;3044;43.232;27.972;2023-03-16T10:19:37;43998.13;;;-143.84;96.85
6032;BME280;3044;43.232;27.972;2023-03-16T10:22:15;44011.47;;;-143.84;97.27
6032;BME280;3044;43.232;27.972;2023-03-16T10:24:51;44024.78;;;-143.84;97.13
6032;BME280;3044;43.232;27.972;2023-03-16T10:27:27;43994.31;;;-143.84;96.75
6032;BME280;3044;43.232;27.972;2023-03-16T10:29:55;43996.22;;;-143.84;97.10
6032;BME280;3044;43.232;27.972;2023-03-16T10:32:22;44003.84;;;-143.84;96.83
6032;BME280;3044;43.232;27.972;2023-03-16T10:34:56;44007.66;;;-143.84;97.05
6032;BME280;3044;43.232;27.972;2023-03-16T10:37:26;44011.47;;;-143.84;97.03
6032;BME280;3044;43.232;27.972;2023-03-16T10:39:56;43996.22;;;-143.84;96.92
6032;BME280;3044;43.232;27.972;2023-03-16T10:42:26;44015.25;;;-143.84;96.85
6032;BME280;3044;43.232;27.972;2023-03-16T10:44:57;43992.41;;;-143.84;96.60
6032;BME280;3044;43.232;27.972;2023-03-16T10:47:29;44005.75;;;-143.84;96.17
6032;BME280;3044;43.232;27.972;2023-03-16T10:49:57;43973.38;;;-143.84;96.36
6032;BME280;3044;43.232;27.972;2023-03-16T10:52:32;43992.41;;;-143.84;96.46
6032;BME280;3044;43.232;27.972;2023-03-16T10:55:06;43981.00;;;-143.84;96.07
6032;BME280;3044;43.232;27.972;2023-03-16T10:57:41;43979.09;;;-143.84;96.37
6032;BME280;3044;43.232;27.972;2023-03-16T11:00:13;43986.72;;;-143.84;96.13
6032;BME280;3044;43.232;27.972;2023-03-16T11:02:46;43988.63;;;-143.84;96.08
6032;BME280;3044;43.232;27.972;2023-03-16T11:05:25;43969.59;;;-143.84;96.21
6032;BME280;3044;43.232;27.972;2023-03-16T11:07:57;43973.38;;;-143.84;95.79
6032;BME280;3044;43.232;27.972;2023-03-16T11:10:28;43975.28;;;-143.84;95.40
6032;BME280;3044;43.232;27.972;2023-03-16T11:13:03;43981.00;;;-143.84;95.65
6032;BME280;3044;43.232;27.972;2023-03-16T11:15:36;43956.25;;;-143.84;95.36
6032;BME280;3044;43.232;27.972;2023-03-16T11:18:04;43941.03;;;-143.84;94.67
6032;BME280;3044;43.232;27.972;2023-03-16T11:20:34;43927.69;;;-143.84;94.69
6032;BME280;3044;43.232;27.972;2023-03-16T11:23:05;43899.16;;;-143.84;93.61
6032;BME280;3044;43.232;27.972;2023-03-16T11:25:42;43897.25;;;-143.84;93.90
6032;BME280;3044;43.232;27.972;2023-03-16T11:28:16;43902.97;;;-143.84;94.06
6032;BME280;3044;43.232;27.972;2023-03-16T11:30:50;43916.28;;;-143.84;94.14
6032;BME280;3044;43.232;27.972;2023-03-16T11:33:21;43914.38;;;-143.84;94.18
6032;BME280;3044;43.232;27.972;2023-03-16T11:35:59;43912.47;;;-143.84;94.04
6032;BME280;3044;43.232;27.972;2023-03-16T11:38:32;43899.16;;;-143.84;94.14
6032;BME280;3044;43.232;27.972;2023-03-16T11:41:03;43906.75;;;-143.84;94.27
6032;BME280;3044;43.232;27.972;2023-03-16T11:43:48;43914.38;;;-143.84;93.90
6032;BME280;3044;43.232;27.972;2023-03-16T11:46:21;43908.66;;;-143.84;94.02
6032;BME280;3044;43.232;27.972;2023-03-16T11:49:23;43916.28;;;-143.84;94.15
6032;BME280;3044;43.232;27.972;2023-03-16T11:52:02;43895.34;;;-143.84;93.86
6032;BME280;3044;43.232;27.972;2023-03-16T11:54:46;43918.19;;;-143.84;94.44
6032;BME280;3044;43.232;27.972;2023-03-16T11:57:30;43925.78;;;-143.84;94.61
6032;BME280;3044;43.232;27.972;2023-03-16T12:00:10;43925.78;;;-143.84;94.62
6032;BME280;3044;43.232;27.972;2023-03-16T12:02:48;43942.94;;;-143.84;94.73
6032;BME280;3044;43.232;27.972;2023-03-16T12:08:27;43902.97;;;-143.84;93.74
6032;BME280;3044;43.232;27.972;2023-03-16T12:11:01;43899.16;;;-143.84;93.84
6032;BME280;3044;43.232;27.972;2023-03-16T12:13:43;43882.00;;;-143.84;93.57
6032;BME280;3044;43.232;27.972;2023-03-16T12:16:20;43901.06;;;-143.84;93.25
6032;BME280;3044;43.232;27.972;2023-03-16T12:18:51;43893.44;;;-143.84;92.66
6032;BME280;3044;43.232;27.972;2023-03-16T12:21:27;43864.88;;;-143.84;93.17
6032;BME280;3044;43.232;27.972;2023-03-16T12:23:59;43895.34;;;-143.84;93.30
6032;BME280;3044;43.232;27.972;2023-03-16T12:26:31;43878.22;;;-143.84;93.03
6032;BME280;3044;43.232;27.972;2023-03-16T12:29:06;43895.34;;;-143.84;93.25
6032;BME280;3044;43.232;27.972;2023-03-16T12:31:42;43878.22;;;-143.84;93.41
6032;BME280;3044;43.232;27.972;2023-03-16T12:34:19;43908.66;;;-143.84;93.65
6032;BME280;3044;43.232;27.972;2023-03-16T12:36:59;43914.38;;;-143.84;93.59
6032;BME280;3044;43.232;27.972;2023-03-16T12:39:38;43895.34;;;-143.84;93.16
6032;BME280;3044;43.232;27.972;2023-03-16T12:42:21;43897.25;;;-143.84;93.71
6032;BME280;3044;43.232;27.972;2023-03-16T12:44:54;43899.16;;;-143.84;93.93
6032;BME280;3044;43.232;27.972;2023-03-16T12:47:29;43914.38;;;-143.84;94.08
6032;BME280;3044;43.232;27.972;2023-03-16T12:50:03;43927.69;;;-143.84;94.05
6032;BME280;3044;43.232;27.972;2023-03-16T12:52:39;43899.16;;;-143.84;94.28
6032;BME280;3044;43.232;27.972;2023-03-16T12:55:12;43906.75;;;-143.84;93.89
6032;BME280;3044;43.232;27.972;2023-03-16T12:57:42;43914.38;;;-143.84;93.79
6032;BME280;3044;43.232;27.972;2023-03-16T13:00:11;43891.53;;;-143.84;93.74
6032;BME280;3044;43.232;27.972;2023-03-16T13:02:45;43891.53;;;-143.84;93.49
6032;BME280;3044;43.232;27.972;2023-03-16T13:05:17;43918.19;;;-143.84;93.75
6032;BME280;3044;43.232;27.972;2023-03-16T13:08:04;43895.34;;;-143.84;93.20
6032;BME280;3044;43.232;27.972;2023-03-16T13:10:32;43889.63;;;-143.84;93.36